Little Rock AFB, Arkansas
Current Conditions -  °F | °C
As of 1:53 AM on Saturday 20 Dec 2014 (Local Time) from KLIT Reporting Station
Overcast Overcast  
Wind Chill: 37°   Ceiling: 5500
Heat Index: 41°   Visibility: 7mi
Dew Point: 35°   Wind: 6mph
Humidity: 79%   Direction: 40°NE
Pressure: 30.24"   Gusts: NA
Location:  34.73°N, 92.23°W
Report Text: KLIT 200753Z 04005KT 7SM OVC055 05/02 A3024 RMK AO2 SLP244 T00500017
Loading
Personal Weather Stations






























Interactive Weather Map New forecast layout! Learn more

10-Day Weather Forecast

Advertisements
Track Severe Weather on mobile